createdAt,value
2019-04-10T00:00:51.208Z,11.86
2019-04-10T00:01:51.354Z,11.91
2019-04-10T00:02:50.725Z,11.95
2019-04-10T00:03:51.041Z,11.84
2019-04-10T00:04:50.270Z,11.87
2019-04-10T00:05:50.325Z,11.91
2019-04-10T00:06:50.706Z,11.86
2019-04-10T00:07:50.417Z,11.86
2019-04-10T00:08:51.158Z,12
2019-04-10T00:09:51.587Z,11.88
2019-04-10T00:10:50.400Z,11.9
2019-04-10T00:11:51.448Z,11.97
2019-04-10T00:12:50.243Z,11.95
2019-04-10T00:13:51.471Z,11.87
2019-04-10T00:14:50.790Z,12
2019-04-10T00:15:51.256Z,12.04
2019-04-10T00:16:52.142Z,11.94
2019-04-10T00:17:51.493Z,12.04
2019-04-10T00:18:51.159Z,12.04
2019-04-10T00:19:49.964Z,12
2019-04-10T00:20:51.464Z,11.97
2019-04-10T00:21:50.470Z,11.97
2019-04-10T00:22:51.108Z,12.06
2019-04-10T00:23:51.578Z,11.86
2019-04-10T00:24:50.857Z,11.97
2019-04-10T00:25:51.217Z,11.94
2019-04-10T00:26:50.496Z,11.84
2019-04-10T00:27:50.708Z,11.87
2019-04-10T00:28:50.214Z,11.95
2019-04-10T00:29:52.287Z,11.94
2019-04-10T00:30:50.181Z,12
2019-04-10T00:31:51.134Z,11.9
2019-04-10T00:32:50.458Z,11.99
2019-04-10T00:33:51.616Z,11.86
2019-04-10T00:34:50.181Z,11.87
2019-04-10T00:35:50.068Z,11.9
2019-04-10T00:36:51.470Z,11.94
2019-04-10T00:37:49.902Z,11.94
2019-04-10T00:38:50.742Z,11.95
2019-04-10T00:39:51.338Z,11.99
2019-04-10T00:40:50.613Z,11.9
2019-04-10T00:41:50.807Z,11.9
2019-04-10T00:42:50.129Z,11.94
2019-04-10T00:43:51.640Z,11.95
2019-04-10T00:44:50.467Z,11.97
2019-04-10T00:45:51.572Z,11.84
2019-04-10T00:46:51.266Z,11.95
2019-04-10T00:47:51.070Z,11.9
2019-04-10T00:48:50.613Z,11.84
2019-04-10T00:49:50.431Z,11.9
2019-04-10T00:50:51.350Z,11.84
2019-04-10T00:51:50.348Z,11.81
2019-04-10T00:52:50.980Z,11.91
2019-04-10T00:53:50.130Z,11.86
2019-04-10T00:54:51.308Z,11.83
2019-04-10T00:55:50.745Z,11.84
2019-04-10T00:56:50.987Z,11.81
2019-04-10T00:57:50.181Z,11.87
2019-04-10T00:58:51.226Z,11.9
2019-04-10T00:59:50.840Z,11.84
2019-04-10T01:00:50.495Z,11.86
2019-04-10T01:01:50.533Z,11.77
2019-04-10T01:02:51.175Z,11.8
2019-04-10T01:03:53.882Z,11.83
2019-04-10T01:04:51.485Z,11.81
2019-04-10T01:05:51.285Z,11.77
2019-04-10T01:06:50.596Z,11.75
2019-04-10T01:07:51.887Z,11.81
2019-04-10T01:08:51.136Z,11.7
2019-04-10T01:09:50.619Z,11.73
2019-04-10T01:10:50.894Z,11.73
2019-04-10T01:11:50.202Z,11.72
2019-04-10T01:12:50.532Z,11.73
2019-04-10T01:13:50.284Z,11.68
2019-04-10T01:14:50.443Z,11.7
2019-04-10T01:15:51.177Z,11.65
2019-04-10T01:16:50.255Z,11.69
2019-04-10T01:17:51.356Z,11.68
2019-04-10T01:18:51.234Z,11.68
2019-04-10T01:19:50.491Z,11.55
2019-04-10T01:20:50.325Z,11.6
2019-04-10T01:21:51.250Z,11.57
2019-04-10T01:22:50.359Z,11.55
2019-04-10T01:23:51.439Z,11.6
2019-04-10T01:24:50.642Z,11.66
2019-04-10T01:25:51.209Z,11.57
2019-04-10T01:26:50.327Z,11.59
2019-04-10T01:27:50.424Z,11.54
2019-04-10T01:28:51.150Z,11.54
2019-04-10T01:29:52.002Z,11.57
2019-04-10T01:30:51.130Z,11.63
2019-04-10T01:31:51.053Z,11.52
2019-04-10T01:32:50.513Z,11.6
2019-04-10T01:33:51.379Z,11.63
2019-04-10T01:34:50.055Z,11.54
2019-04-10T01:35:51.227Z,11.55
2019-04-10T01:36:50.804Z,11.52
2019-04-10T01:38:05.631Z,11.52
2019-04-10T01:38:51.897Z,11.52
2019-04-10T01:39:51.195Z,11.51
2019-04-10T01:40:51.130Z,11.51
2019-04-10T01:41:50.471Z,11.48
2019-04-10T01:43:16.871Z,11.44
2019-04-10T01:43:51.219Z,11.45
2019-04-10T01:44:51.163Z,11.45
2019-04-10T01:45:51.876Z,11.48
2019-04-10T01:46:51.169Z,11.51
2019-04-10T01:47:51.156Z,11.36
2019-04-10T01:48:51.000Z,11.44
2019-04-10T01:49:53.649Z,11.45
2019-04-10T01:50:50.945Z,11.33
2019-04-10T01:51:50.372Z,11.33
2019-04-10T01:52:50.173Z,11.44
2019-04-10T01:53:50.957Z,11.4
2019-04-10T01:54:51.599Z,11.45
2019-04-10T01:55:49.854Z,11.37
2019-04-10T01:56:50.854Z,11.44
2019-04-10T01:57:51.144Z,11.47
2019-04-10T01:58:50.269Z,11.47
2019-04-10T01:59:50.700Z,11.37
2019-04-10T02:00:50.765Z,11.52
2019-04-10T02:01:50.800Z,11.47
2019-04-10T02:02:50.276Z,11.45
2019-04-10T02:03:50.058Z,11.48
2019-04-10T02:04:53.693Z,11.43
2019-04-10T02:05:49.865Z,11.35
2019-04-10T02:06:49.695Z,11.36
2019-04-10T02:08:13.356Z,11.37
2019-04-10T02:08:50.044Z,11.4
2019-04-10T02:09:50.442Z,11.37
2019-04-10T02:10:50.640Z,11.32
2019-04-10T02:11:50.841Z,11.32
2019-04-10T02:12:50.800Z,11.27
2019-04-10T02:13:50.132Z,11.23
2019-04-10T02:14:49.754Z,11.23
2019-04-10T02:15:50.872Z,11.25
2019-04-10T02:16:50.064Z,11.18
2019-04-10T02:17:49.780Z,11.23
2019-04-10T02:18:50.519Z,11.19
2019-04-10T02:19:50.663Z,11.18
2019-04-10T02:20:50.045Z,11.17
2019-04-10T02:21:49.926Z,11.17
2019-04-10T02:22:50.426Z,11.25
2019-04-10T02:23:50.289Z,11.26
2019-04-10T02:24:49.990Z,11.23
2019-04-10T02:25:49.960Z,11.23
2019-04-10T02:26:50.452Z,11.15
2019-04-10T02:27:50.974Z,11.19
2019-04-10T02:28:49.714Z,11.26
2019-04-10T02:29:50.858Z,11.12
2019-04-10T02:30:52.427Z,11.17
2019-04-10T02:31:54.892Z,11.14
2019-04-10T02:32:55.363Z,11.12
2019-04-10T02:33:49.756Z,11.15
2019-04-10T02:34:53.758Z,11.07
2019-04-10T02:35:50.720Z,11.1
2019-04-10T02:36:54.730Z,11.08
2019-04-10T02:37:56.145Z,10.92
2019-04-10T02:39:29.589Z,10.94
2019-04-10T02:40:05.674Z,11.02
2019-04-10T02:40:59.649Z,10.9
2019-04-10T02:41:58.455Z,11.04
2019-04-10T02:42:58.848Z,10.89
2019-04-10T02:43:57.838Z,11
2019-04-10T02:44:57.768Z,10.93
2019-04-10T02:45:59.820Z,10.84
2019-04-10T02:47:02.178Z,10.9
2019-04-10T02:47:59.352Z,10.94
2019-04-10T02:49:00.128Z,10.93
2019-04-10T02:49:58.591Z,10.86
2019-04-10T02:50:59.562Z,10.87
2019-04-10T02:51:58.853Z,10.86
2019-04-10T02:52:59.121Z,10.87
2019-04-10T02:54:00.578Z,10.76
2019-04-10T02:54:59.378Z,10.87
2019-04-10T02:56:00.622Z,10.84
2019-04-10T02:56:59.239Z,10.82
2019-04-10T02:58:00.683Z,10.84
2019-04-10T02:58:56.765Z,10.79
2019-04-10T03:00:00.764Z,10.86
2019-04-10T03:00:59.101Z,10.84
2019-04-10T03:02:00.089Z,10.79
2019-04-10T03:03:01.539Z,10.79
2019-04-10T03:03:59.409Z,10.78
2019-04-10T03:04:59.220Z,10.82
2019-04-10T03:05:56.641Z,10.78
2019-04-10T03:07:00.573Z,10.76
2019-04-10T03:07:58.409Z,10.81
2019-04-10T03:09:49.097Z,10.75
2019-04-10T03:10:55.715Z,10.72
2019-04-10T03:11:35.156Z,10.75
2019-04-10T03:12:32.141Z,10.78
2019-04-10T03:13:33.830Z,10.78
2019-04-10T03:14:32.619Z,10.78
2019-04-10T03:15:33.625Z,10.75
2019-04-10T03:16:29.572Z,10.72
2019-04-10T03:17:30.007Z,10.68
2019-04-10T03:18:30.933Z,10.63
2019-04-10T03:19:30.118Z,10.74
2019-04-10T03:20:30.056Z,10.75
2019-04-10T03:21:29.292Z,10.63
2019-04-10T03:22:32.460Z,10.67
2019-04-10T03:23:29.739Z,10.63
2019-04-10T03:24:29.848Z,10.68
2019-04-10T03:25:31.249Z,10.74
2019-04-10T03:26:30.419Z,10.74
2019-04-10T03:27:29.936Z,10.61
2019-04-10T03:28:29.792Z,10.63
2019-04-10T03:29:29.674Z,10.61
2019-04-10T03:30:31.810Z,10.57
2019-04-10T03:31:34.597Z,10.54
2019-04-10T03:32:44.194Z,10.49
2019-04-10T03:33:40.368Z,10.53
2019-04-10T03:34:40.261Z,10.6
2019-04-10T03:35:30.347Z,10.57
2019-04-10T03:36:29.811Z,10.53
2019-04-10T03:37:28.965Z,10.51
2019-04-10T03:38:29.947Z,10.54
2019-04-10T03:39:33.212Z,10.56
2019-04-10T03:40:29.580Z,10.59
2019-04-10T03:41:30.064Z,10.53
2019-04-10T03:42:31.068Z,10.53
2019-04-10T03:43:30.215Z,10.56
2019-04-10T03:44:30.415Z,10.54
2019-04-10T03:45:29.219Z,10.41
2019-04-10T03:46:30.107Z,10.46
2019-04-10T03:47:29.935Z,10.44
2019-04-10T03:48:29.751Z,10.44
2019-04-10T03:49:30.289Z,10.41
2019-04-10T03:50:29.838Z,10.49
2019-04-10T03:51:30.681Z,10.4
2019-04-10T03:52:29.911Z,10.4
2019-04-10T03:53:29.904Z,10.38
2019-04-10T03:54:28.840Z,10.38
2019-04-10T03:55:29.970Z,10.51
2019-04-10T03:56:30.044Z,10.48
2019-04-10T03:57:29.445Z,10.46
2019-04-10T03:58:29.771Z,10.53
2019-04-10T03:59:28.905Z,10.53
2019-04-10T04:00:30.258Z,10.46
2019-04-10T04:01:29.879Z,10.41
2019-04-10T04:02:29.783Z,10.35
2019-04-10T04:03:29.413Z,10.46
2019-04-10T04:04:29.186Z,10.4
2019-04-10T04:05:29.127Z,10.4
2019-04-10T04:06:28.779Z,10.44
2019-04-10T04:07:32.838Z,10.38
2019-04-10T04:08:30.162Z,10.33
2019-04-10T04:09:29.465Z,10.34
2019-04-10T04:10:29.408Z,10.22
2019-04-10T04:11:29.362Z,10.34
2019-04-10T04:12:29.094Z,10.34
2019-04-10T04:13:31.246Z,10.34
2019-04-10T04:14:28.793Z,10.35
2019-04-10T04:15:28.969Z,10.26
2019-04-10T04:16:29.328Z,10.31
2019-04-10T04:17:28.751Z,10.35
2019-04-10T04:18:29.726Z,10.34
2019-04-10T04:19:28.943Z,10.34
2019-04-10T04:20:29.026Z,10.31
2019-04-10T04:21:28.458Z,10.26
2019-04-10T04:22:30.860Z,10.28
2019-04-10T04:23:29.804Z,10.28
2019-04-10T04:24:31.545Z,10.17
2019-04-10T04:25:28.913Z,10.15
2019-04-10T04:26:31.586Z,10.2
2019-04-10T04:27:29.587Z,10.22
2019-04-10T04:28:28.418Z,10.2
2019-04-10T04:29:30.339Z,10.19
2019-04-10T04:30:29.711Z,10.12
2019-04-10T04:31:29.504Z,10.09
2019-04-10T04:32:29.359Z,10.26
2019-04-10T04:33:30.015Z,10.12
2019-04-10T04:34:29.818Z,10.13
2019-04-10T04:35:29.752Z,10.13
2019-04-10T04:36:29.169Z,10.15
2019-04-10T04:37:28.851Z,10.19
2019-04-10T04:38:30.012Z,10.17
2019-04-10T04:39:34.935Z,10.01
2019-04-10T04:40:29.946Z,10.19
2019-04-10T04:41:30.050Z,10.2
2019-04-10T04:42:29.271Z,10.13
2019-04-10T04:43:30.642Z,10.05
2019-04-10T04:44:29.474Z,10.16
2019-04-10T04:45:28.586Z,10.1
2019-04-10T04:46:28.312Z,10.1
2019-04-10T04:47:28.965Z,10.09
2019-04-10T04:48:28.888Z,10.07
2019-04-10T04:49:29.120Z,10.09
2019-04-10T04:50:29.512Z,10.09
2019-04-10T04:51:31.715Z,10.15
2019-04-10T04:52:28.561Z,10.05
2019-04-10T04:53:28.765Z,10.13
2019-04-10T04:54:28.921Z,10.01
2019-04-10T04:55:29.000Z,9.97
2019-04-10T04:56:28.606Z,9.97
2019-04-10T04:57:29.091Z,9.97
2019-04-10T04:58:29.152Z,9.95
2019-04-10T04:59:28.747Z,10.09
2019-04-10T05:00:28.479Z,10.02
2019-04-10T05:01:29.622Z,10.04
2019-04-10T05:02:28.871Z,9.98
2019-04-10T05:03:31.505Z,10.12
2019-04-10T05:04:32.153Z,10.1
2019-04-10T05:05:29.935Z,10.1
2019-04-10T05:06:29.132Z,10.12
2019-04-10T05:07:29.521Z,10.22
2019-04-10T05:08:28.699Z,10.1
2019-04-10T05:09:42.207Z,10.05
2019-04-10T05:10:29.945Z,10.1
2019-04-10T05:11:28.824Z,10.23
2019-04-10T05:12:28.758Z,10.2
2019-04-10T05:13:28.904Z,10.12
2019-04-10T05:14:29.513Z,10.13
2019-04-10T05:15:29.624Z,10.22
2019-04-10T05:16:30.659Z,10.19
2019-04-10T05:17:29.011Z,10.25
2019-04-10T05:18:29.797Z,10.17
2019-04-10T05:19:28.386Z,10.25
2019-04-10T05:20:47.002Z,10.2
2019-04-10T05:21:29.583Z,10.31
2019-04-10T05:22:28.990Z,10.33
2019-04-10T05:23:29.024Z,10.26
2019-04-10T05:24:29.956Z,10.26
2019-04-10T05:25:29.674Z,10.25
2019-04-10T05:26:28.576Z,10.22
2019-04-10T05:27:29.481Z,10.22
2019-04-10T05:28:29.893Z,10.2
2019-04-10T05:29:33.029Z,10.2
2019-04-10T05:30:29.368Z,10.22
2019-04-10T05:31:28.559Z,10.3
2019-04-10T05:32:28.584Z,10.25
2019-04-10T05:33:29.492Z,10.17
2019-04-10T05:34:28.315Z,10.26
2019-04-10T05:35:28.551Z,10.23
2019-04-10T05:36:29.327Z,10.26
2019-04-10T05:37:29.620Z,10.25
2019-04-10T05:38:29.724Z,10.26
2019-04-10T05:39:47.490Z,10.33
2019-04-10T05:40:28.689Z,10.31
2019-04-10T05:41:29.353Z,10.34
2019-04-10T05:42:29.590Z,10.38
2019-04-10T05:43:28.841Z,10.38
2019-04-10T05:44:28.654Z,10.41
2019-04-10T05:45:28.242Z,10.34
2019-04-10T05:46:30.716Z,10.4
2019-04-10T05:47:28.634Z,10.37
2019-04-10T05:48:31.405Z,10.35
2019-04-10T05:49:29.443Z,10.34
2019-04-10T05:50:28.474Z,10.4
2019-04-10T05:51:28.899Z,10.33
2019-04-10T05:52:29.120Z,10.37
2019-04-10T05:53:29.149Z,10.35
2019-04-10T05:54:29.527Z,10.26
2019-04-10T05:55:29.432Z,10.35
2019-04-10T05:56:28.319Z,10.28
2019-04-10T05:57:29.381Z,10.26
2019-04-10T05:58:29.324Z,10.3
2019-04-10T05:59:28.468Z,10.26
2019-04-10T06:00:29.439Z,10.31
2019-04-10T06:01:44.477Z,10.33
2019-04-10T06:02:27.916Z,10.41
2019-04-10T06:03:30.570Z,10.42
2019-04-10T06:04:29.435Z,10.4
2019-04-10T06:05:29.895Z,10.44
2019-04-10T06:06:29.036Z,10.48
2019-04-10T06:07:28.181Z,10.42
2019-04-10T06:08:28.594Z,10.44
2019-04-10T06:09:29.071Z,10.35
2019-04-10T06:10:30.103Z,10.54
2019-04-10T06:11:29.432Z,10.59
2019-04-10T06:12:29.131Z,10.48
2019-04-10T06:13:28.352Z,10.56
2019-04-10T06:14:30.295Z,10.51
2019-04-10T06:15:29.011Z,10.49
2019-04-10T06:16:28.514Z,10.54
2019-04-10T06:17:30.149Z,10.61
2019-04-10T06:18:29.549Z,10.6
2019-04-10T06:19:32.356Z,10.61
2019-04-10T06:20:29.225Z,10.63
2019-04-10T06:21:31.378Z,10.6
2019-04-10T06:22:28.870Z,10.75
2019-04-10T06:23:28.304Z,10.71
2019-04-10T06:24:30.373Z,10.74
2019-04-10T06:25:33.335Z,10.72
2019-04-10T06:26:29.978Z,10.78
2019-04-10T06:27:28.786Z,10.69
2019-04-10T06:28:34.300Z,10.57
2019-04-10T06:29:29.199Z,10.61
2019-04-10T06:30:28.705Z,10.59
2019-04-10T06:31:28.518Z,10.68
2019-04-10T06:32:28.031Z,10.64
2019-04-10T06:33:31.808Z,10.67
2019-04-10T06:34:28.131Z,10.67
2019-04-10T06:35:28.645Z,10.75
2019-04-10T06:36:29.535Z,10.76
2019-04-10T06:37:28.977Z,10.76
2019-04-10T06:38:29.000Z,10.64
2019-04-10T06:39:29.487Z,10.72
2019-04-10T06:40:33.430Z,10.78
2019-04-10T06:41:28.869Z,10.79
2019-04-10T06:42:29.539Z,10.71
2019-04-10T06:43:28.807Z,10.76
2019-04-10T06:44:28.117Z,10.86
2019-04-10T06:45:28.553Z,10.93
2019-04-10T06:46:29.113Z,10.89
2019-04-10T06:47:29.160Z,10.9
2019-04-10T06:48:28.223Z,10.87
2019-04-10T06:49:29.351Z,10.89
2019-04-10T06:50:30.041Z,10.93
2019-04-10T06:51:27.921Z,10.96
2019-04-10T06:52:30.370Z,10.89
2019-04-10T06:53:28.922Z,10.94
2019-04-10T06:54:29.250Z,11.02
2019-04-10T06:55:28.385Z,10.96
2019-04-10T06:56:28.956Z,10.96
2019-04-10T06:57:27.898Z,10.96
2019-04-10T06:58:28.684Z,10.94
2019-04-10T06:59:28.425Z,10.97
2019-04-10T07:00:28.534Z,11.04
2019-04-10T07:01:50.849Z,11.02
2019-04-10T07:02:35.948Z,10.97
2019-04-10T07:03:56.396Z,11.02
2019-04-10T07:04:42.726Z,10.93
2019-04-10T07:05:51.192Z,10.96
2019-04-10T07:07:05.279Z,10.9
2019-04-10T07:07:51.744Z,10.84
2019-04-10T07:08:30.167Z,10.74
2019-04-10T07:09:32.176Z,10.76
2019-04-10T07:10:56.464Z,10.71
2019-04-10T07:11:34.875Z,10.71
2019-04-10T07:12:34.003Z,10.76
2019-04-10T07:13:28.701Z,10.68
2019-04-10T07:14:29.396Z,10.69
2019-04-10T07:15:29.753Z,10.74
2019-04-10T07:16:35.671Z,10.72
2019-04-10T07:17:29.136Z,10.72
2019-04-10T07:18:28.833Z,10.57
2019-04-10T07:19:28.934Z,10.6
2019-04-10T07:20:29.504Z,10.59
2019-04-10T07:21:35.186Z,10.57
2019-04-10T07:22:28.942Z,10.59
2019-04-10T07:23:36.555Z,10.67
2019-04-10T07:24:27.796Z,10.56
2019-04-10T07:25:28.580Z,10.63
2019-04-10T07:26:47.410Z,10.64
2019-04-10T07:27:32.698Z,10.76
2019-04-10T07:28:29.747Z,10.76
2019-04-10T07:29:34.111Z,10.74
2019-04-10T07:30:31.765Z,10.81
2019-04-10T07:31:30.258Z,10.79
2019-04-10T07:32:30.212Z,10.76
2019-04-10T07:33:29.033Z,10.75
2019-04-10T07:34:32.373Z,10.81
2019-04-10T07:35:35.721Z,10.72
2019-04-10T07:36:28.674Z,10.76
2019-04-10T07:37:29.148Z,10.64
2019-04-10T07:38:27.783Z,10.74
2019-04-10T07:39:35.113Z,10.74
2019-04-10T07:40:28.292Z,10.67
2019-04-10T07:41:31.781Z,10.67
2019-04-10T07:42:42.700Z,10.78
2019-04-10T07:43:33.213Z,10.76
2019-04-10T07:44:27.946Z,10.75
2019-04-10T07:45:31.248Z,10.72
2019-04-10T07:46:28.542Z,10.74
2019-04-10T07:47:29.321Z,10.74
2019-04-10T07:48:27.456Z,10.81
2019-04-10T07:49:34.698Z,10.81
2019-04-10T07:50:28.532Z,10.72
2019-04-10T07:51:28.074Z,10.72
2019-04-10T07:52:29.957Z,10.71
2019-04-10T07:53:29.183Z,10.79
2019-04-10T07:54:29.098Z,10.75
2019-04-10T07:55:28.832Z,10.75
2019-04-10T07:56:29.183Z,10.76
2019-04-10T07:57:29.048Z,10.75
2019-04-10T07:58:29.417Z,10.76
2019-04-10T07:59:27.875Z,10.72
2019-04-10T08:00:31.820Z,10.74
2019-04-10T08:01:29.187Z,10.76
2019-04-10T08:02:27.702Z,10.72
2019-04-10T08:03:28.695Z,10.72
2019-04-10T08:04:27.598Z,10.78
2019-04-10T08:05:27.607Z,10.63
2019-04-10T08:06:28.135Z,10.69
2019-04-10T08:07:39.245Z,10.69
2019-04-10T08:08:28.425Z,10.78
2019-04-10T08:09:27.322Z,10.82
2019-04-10T08:10:28.984Z,10.79
2019-04-10T08:11:29.505Z,10.74
2019-04-10T08:12:47.275Z,10.78
2019-04-10T08:13:28.977Z,10.89
2019-04-10T08:14:29.861Z,10.82
2019-04-10T08:15:27.655Z,10.86
2019-04-10T08:16:27.809Z,10.9
2019-04-10T08:17:28.659Z,10.96
2019-04-10T08:18:27.704Z,10.96
2019-04-10T08:19:31.543Z,11
2019-04-10T08:20:28.625Z,11.08
2019-04-10T08:21:29.568Z,11.02
2019-04-10T08:22:28.847Z,10.97
2019-04-10T08:23:28.475Z,11
2019-04-10T08:24:28.565Z,10.94
2019-04-10T08:25:28.828Z,11.02
2019-04-10T08:26:28.159Z,10.92
2019-04-10T08:27:28.301Z,10.96
2019-04-10T08:28:32.757Z,10.97
2019-04-10T08:29:28.476Z,10.96
2019-04-10T08:30:28.536Z,11.08
2019-04-10T08:31:28.709Z,11.23
2019-04-10T08:32:28.451Z,11.25
2019-04-10T08:33:28.405Z,11.29
2019-04-10T08:34:28.280Z,11.36
2019-04-10T08:35:27.554Z,11.33
2019-04-10T08:36:28.308Z,11.29
2019-04-10T08:37:28.996Z,11.32
2019-04-10T08:38:29.967Z,11.33
2019-04-10T08:39:48.935Z,11.32
2019-04-10T08:40:28.061Z,11.29
2019-04-10T08:41:30.454Z,11.29
2019-04-10T08:42:27.727Z,11.35
2019-04-10T08:43:29.530Z,11.36
2019-04-10T08:44:27.803Z,11.33
2019-04-10T08:45:46.182Z,11.35
2019-04-10T08:46:28.524Z,11.25
2019-04-10T08:47:27.662Z,11.23
2019-04-10T08:48:33.050Z,11.26
2019-04-10T08:49:28.270Z,11.35
2019-04-10T08:50:28.406Z,11.4
2019-04-10T08:51:28.048Z,11.32
2019-04-10T08:52:28.679Z,11.3
2019-04-10T08:53:30.557Z,11.36
2019-04-10T08:54:28.653Z,11.33
2019-04-10T08:55:28.499Z,11.41
2019-04-10T08:56:28.010Z,11.41
2019-04-10T08:57:28.081Z,11.47
2019-04-10T08:58:27.774Z,11.54
2019-04-10T08:59:28.523Z,11.6
2019-04-10T09:00:28.817Z,11.55
2019-04-10T09:01:27.565Z,11.73
2019-04-10T09:02:28.618Z,11.77
2019-04-10T09:03:27.379Z,11.75
2019-04-10T09:04:28.669Z,11.95
2019-04-10T09:05:28.624Z,12.02
2019-04-10T09:06:27.918Z,11.99
2019-04-10T09:07:28.349Z,12.03
2019-04-10T09:08:27.321Z,12.12
2019-04-10T09:09:28.508Z,12.13
2019-04-10T09:10:28.484Z,12.17
2019-04-10T09:11:35.388Z,12.28
2019-04-10T09:12:29.568Z,12.24
2019-04-10T09:13:28.479Z,12.28
2019-04-10T09:14:29.609Z,12.39
2019-04-10T09:15:28.236Z,12.4
2019-04-10T09:16:28.742Z,12.45
2019-04-10T09:17:27.660Z,12.4
2019-04-10T09:18:27.927Z,12.39
2019-04-10T09:19:28.160Z,12.21
2019-04-10T09:20:28.538Z,12.21
2019-04-10T09:21:28.530Z,12.35
2019-04-10T09:22:27.041Z,12.22
2019-04-10T09:23:52.755Z,12.32
2019-04-10T09:24:28.065Z,12.39
2019-04-10T09:25:27.513Z,12.46
2019-04-10T09:26:28.529Z,12.5
2019-04-10T09:27:27.286Z,12.61
2019-04-10T09:28:27.031Z,12.75
2019-04-10T09:29:30.331Z,12.83
2019-04-10T09:30:27.262Z,12.91
2019-04-10T09:31:29.443Z,12.79
2019-04-10T09:32:28.512Z,12.86
2019-04-10T09:33:34.898Z,13
2019-04-10T09:34:28.076Z,13.01
2019-04-10T09:35:28.657Z,13.09
2019-04-10T09:36:27.438Z,13
2019-04-10T09:37:28.472Z,12.94
2019-04-10T09:38:28.544Z,12.78
2019-04-10T09:39:27.882Z,12.8
2019-04-10T09:40:27.942Z,12.9
2019-04-10T09:41:28.321Z,12.98
2019-04-10T09:42:28.218Z,13
2019-04-10T09:43:27.523Z,12.83
2019-04-10T09:44:28.108Z,12.87
2019-04-10T09:45:30.886Z,12.8
2019-04-10T09:46:27.258Z,12.94
2019-04-10T09:47:27.572Z,13.01
2019-04-10T09:48:27.405Z,13.12
2019-04-10T09:49:46.981Z,13.23
2019-04-10T09:50:28.644Z,13.15
2019-04-10T09:51:28.384Z,13.25
2019-04-10T09:52:28.503Z,13.27
2019-04-10T09:53:27.213Z,13.22
2019-04-10T09:54:28.715Z,13.39
2019-04-10T09:55:27.758Z,13.5
2019-04-10T09:56:27.918Z,13.44
2019-04-10T09:57:26.956Z,13.52
2019-04-10T09:58:28.308Z,13.56
2019-04-10T09:59:42.711Z,13.71
2019-04-10T10:00:27.944Z,13.81
2019-04-10T10:01:28.719Z,13.86
2019-04-10T10:02:27.793Z,13.95
2019-04-10T10:03:28.130Z,13.92
2019-04-10T10:04:29.190Z,13.96
2019-04-10T10:05:27.281Z,14.03
2019-04-10T10:06:39.603Z,13.99
2019-04-10T10:07:28.726Z,13.77
2019-04-10T10:08:27.217Z,13.79
2019-04-10T10:09:32.484Z,13.72
2019-04-10T10:10:27.484Z,13.79
2019-04-10T10:11:28.560Z,13.74
2019-04-10T10:12:28.432Z,13.71
2019-04-10T10:13:28.330Z,13.62
2019-04-10T10:14:31.801Z,13.53
2019-04-10T10:15:27.711Z,13.6
2019-04-10T10:16:30.414Z,13.65
2019-04-10T10:17:26.943Z,13.54
2019-04-10T10:18:28.281Z,13.5
2019-04-10T10:19:28.448Z,13.59
2019-04-10T10:20:29.536Z,13.56
2019-04-10T10:21:28.281Z,13.57
2019-04-10T10:22:27.768Z,13.5
2019-04-10T10:23:28.014Z,13.46
2019-04-10T10:24:27.181Z,13.56
2019-04-10T10:25:29.389Z,13.53
2019-04-10T10:26:28.666Z,13.63
2019-04-10T10:27:29.911Z,13.71
2019-04-10T10:28:27.650Z,13.54
2019-04-10T10:29:28.546Z,13.56
2019-04-10T10:30:27.949Z,13.46
2019-04-10T10:31:28.526Z,13.47
2019-04-10T10:32:27.168Z,13.5
2019-04-10T10:33:28.455Z,13.53
2019-04-10T10:34:28.480Z,13.71
2019-04-10T10:35:27.707Z,13.78
2019-04-10T10:36:47.419Z,13.83
2019-04-10T10:37:27.276Z,13.89
2019-04-10T10:38:27.694Z,13.83
2019-04-10T10:39:28.945Z,13.81
2019-04-10T10:40:28.275Z,13.85
2019-04-10T10:41:27.127Z,13.78
2019-04-10T10:42:28.224Z,13.83
2019-04-10T10:43:28.675Z,13.79
2019-04-10T10:44:28.354Z,13.81
2019-04-10T10:45:27.658Z,13.79
2019-04-10T10:46:27.646Z,13.78
2019-04-10T10:47:29.046Z,13.68
2019-04-10T10:48:27.462Z,13.77
2019-04-10T10:49:27.116Z,13.75
2019-04-10T10:50:28.995Z,13.85
2019-04-10T10:51:27.399Z,13.92
2019-04-10T10:52:28.411Z,13.83
2019-04-10T10:53:28.194Z,13.86
2019-04-10T10:54:29.995Z,14.03
2019-04-10T10:55:27.595Z,14
2019-04-10T10:56:27.107Z,14.11
2019-04-10T10:57:27.572Z,13.97
2019-04-10T10:58:28.562Z,14.12
2019-04-10T10:59:27.417Z,14.11
2019-04-10T11:00:27.927Z,14.23
2019-04-10T11:01:27.580Z,14.2
2019-04-10T11:02:27.991Z,14.22
2019-04-10T11:03:27.363Z,14.15
2019-04-10T11:04:27.846Z,14.03
2019-04-10T11:05:30.624Z,14.04
2019-04-10T11:06:27.482Z,13.95
2019-04-10T11:07:27.290Z,14.05
2019-04-10T11:08:29.490Z,14.05
2019-04-10T11:09:28.606Z,14.14
2019-04-10T11:10:32.295Z,14.18
2019-04-10T11:11:28.223Z,14.33
2019-04-10T11:12:26.837Z,14.43
2019-04-10T11:13:27.163Z,14.36
2019-04-10T11:14:29.803Z,14.41
2019-04-10T11:15:28.606Z,14.28
2019-04-10T11:16:27.507Z,14.22
2019-04-10T11:17:28.248Z,14.26
2019-04-10T11:18:28.542Z,14.36
2019-04-10T11:19:29.239Z,14.35
2019-04-10T11:20:29.805Z,14.36
2019-04-10T11:21:27.504Z,14.43
2019-04-10T11:22:31.065Z,14.48
2019-04-10T11:23:28.330Z,14.51
2019-04-10T11:24:27.947Z,14.59
2019-04-10T11:25:28.698Z,14.68
2019-04-10T11:26:30.210Z,14.59
2019-04-10T11:27:27.995Z,14.62
2019-04-10T11:28:36.877Z,14.5
2019-04-10T11:29:27.069Z,14.33
2019-04-10T11:30:28.600Z,14.25
2019-04-10T11:33:28.663Z,14.23
2019-04-10T11:33:40.202Z,14.14
2019-04-10T11:34:40.832Z,14.14
2019-04-10T11:35:39.800Z,14.1
2019-04-10T11:36:43.935Z,14.12
2019-04-10T11:39:50.891Z,14.37
2019-04-10T11:40:08.929Z,14.41
2019-04-10T11:42:21.429Z,14.37
2019-04-10T11:43:21.605Z,14.23
2019-04-10T11:44:24.889Z,14.08
2019-04-10T11:47:26.739Z,14.04
2019-04-10T11:47:42.507Z,14.05
2019-04-10T11:50:03.873Z,14.3
2019-04-10T11:51:03.442Z,14.29
2019-04-10T11:53:23.840Z,14.4
2019-04-10T11:54:26.852Z,14.41
2019-04-10T11:55:29.727Z,14.41
2019-04-10T11:56:21.286Z,14.5
2019-04-10T11:58:36.250Z,14.44
2019-04-10T11:59:44.636Z,14.53
2019-04-10T12:00:51.705Z,14.44
2019-04-10T12:03:10.647Z,14.54
2019-04-10T12:04:14.058Z,14.54
2019-04-10T12:05:22.019Z,14.66
2019-04-10T12:11:18.568Z,14.77
2019-04-10T12:12:09.064Z,14.62
2019-04-10T12:13:08.265Z,14.53
2019-04-10T12:14:11.003Z,14.54
2019-04-10T12:15:08.296Z,14.5
2019-04-10T12:16:09.622Z,14.55
2019-04-10T12:17:09.625Z,14.5
2019-04-10T12:18:09.249Z,14.51
2019-04-10T12:19:09.386Z,14.54
2019-04-10T12:20:09.373Z,14.53
2019-04-10T12:21:09.757Z,14.63
2019-04-10T12:22:09.871Z,14.66
2019-04-10T12:23:10.876Z,14.63
2019-04-10T12:24:09.512Z,14.72
2019-04-10T12:25:10.200Z,14.73
2019-04-10T12:26:09.804Z,14.6
2019-04-10T12:27:09.368Z,14.58
2019-04-10T12:28:09.569Z,14.66
2019-04-10T12:29:09.020Z,14.63
2019-04-10T12:30:09.103Z,14.58
2019-04-10T12:31:08.250Z,14.53
2019-04-10T12:32:08.760Z,14.51
2019-04-10T12:33:09.950Z,14.55
2019-04-10T12:34:09.079Z,14.66
2019-04-10T12:35:09.538Z,14.65
2019-04-10T12:36:10.127Z,14.65
2019-04-10T12:37:09.161Z,14.69
2019-04-10T12:38:15.566Z,14.81
2019-04-10T12:39:08.868Z,14.91
2019-04-10T12:40:09.822Z,15
2019-04-10T12:41:09.279Z,14.86
2019-04-10T12:42:08.730Z,15.03
2019-04-10T12:43:10.899Z,14.97
2019-04-10T12:44:09.863Z,15.02
2019-04-10T12:45:11.403Z,15
2019-04-10T12:46:09.341Z,14.92
2019-04-10T12:47:08.409Z,14.86
2019-04-10T12:48:08.931Z,14.85
2019-04-10T12:49:09.783Z,14.88
2019-04-10T12:50:08.226Z,14.97
2019-04-10T12:51:08.405Z,14.91
2019-04-10T12:52:08.415Z,15.03
2019-04-10T12:53:09.525Z,15.06
2019-04-10T12:54:10.366Z,15.19
2019-04-10T12:55:08.789Z,15.18
2019-04-10T12:56:10.161Z,15.06
2019-04-10T12:57:08.970Z,14.96
2019-04-10T12:58:20.682Z,14.94
2019-04-10T12:59:09.319Z,14.92
2019-04-10T13:00:09.745Z,14.79
2019-04-10T13:01:09.206Z,14.77
2019-04-10T13:02:10.884Z,14.73
2019-04-10T13:03:11.564Z,14.68
2019-04-10T13:04:08.448Z,14.53
2019-04-10T13:05:09.774Z,14.55
2019-04-10T13:06:09.880Z,14.66
2019-04-10T13:07:09.835Z,14.78
2019-04-10T13:08:47.088Z,14.65
2019-04-10T13:09:20.243Z,14.66
2019-04-10T13:10:18.318Z,14.72
2019-04-10T13:11:16.930Z,14.77
2019-04-10T13:12:17.727Z,14.62
2019-04-10T13:13:18.415Z,14.69